createdAt,value
2022-09-23T00:01:14.205Z,73.46
2022-09-23T00:03:47.142Z,74.47
2022-09-23T00:06:18.412Z,73.97
2022-09-23T00:08:45.323Z,74.23
2022-09-23T00:11:20.837Z,74.02
2022-09-23T00:13:50.843Z,73.83
2022-09-23T00:16:23.123Z,73.98
2022-09-23T00:18:50.422Z,74.01
2022-09-23T00:21:18.645Z,74.02
2022-09-23T00:23:45.590Z,74.85
2022-09-23T00:26:15.896Z,74.42
2022-09-23T00:28:43.500Z,75.14
2022-09-23T00:31:17.009Z,75.42
2022-09-23T00:33:44.219Z,75.28
2022-09-23T00:36:17.628Z,75.17
2022-09-23T00:38:45.234Z,74.82
2022-09-23T00:41:15.186Z,73.88
2022-09-23T00:43:54.194Z,74.13
2022-09-23T00:46:33.180Z,73.87
2022-09-23T00:49:15.618Z,74.34
2022-09-23T00:51:54.299Z,73.64
2022-09-23T00:54:25.002Z,73.53
2022-09-23T00:56:51.989Z,73.54
2022-09-23T00:59:19.931Z,74.01
2022-09-23T01:01:49.564Z,73.69
2022-09-23T01:04:16.537Z,74.52
2022-09-23T01:06:43.362Z,73.91
2022-09-23T01:09:10.268Z,73.54
2022-09-23T01:11:52.171Z,75.04
2022-09-23T01:14:36.667Z,74.91
2022-09-23T01:17:37.374Z,75.65
2022-09-23T01:20:33.589Z,75.62
2022-09-23T01:23:47.000Z,76.46
2022-09-23T01:26:40.467Z,75.81
2022-09-23T01:29:54.033Z,76.24
2022-09-23T01:32:57.929Z,76.81
2022-09-23T01:35:52.980Z,77.04
2022-09-23T01:38:35.898Z,77.76
2022-09-23T01:41:16.995Z,76.68
2022-09-23T01:43:57.779Z,76.44
2022-09-23T01:46:36.459Z,76.96
2022-09-23T01:49:12.802Z,77.37
2022-09-23T01:51:46.150Z,77.73
2022-09-23T01:54:34.713Z,77.58
2022-09-23T01:57:15.110Z,77.95
2022-09-23T01:59:49.512Z,78.19
2022-09-23T02:02:22.928Z,77.47
2022-09-23T02:05:00.590Z,77.74
2022-09-23T02:07:57.954Z,77.42
2022-09-23T02:10:32.972Z,77.41
2022-09-23T02:13:07.458Z,76.77
2022-09-23T02:15:44.815Z,77.61
2022-09-23T02:18:20.826Z,77.63
2022-09-23T02:20:50.750Z,77.25
2022-09-23T02:23:28.000Z,77.65
2022-09-23T02:26:29.451Z,76.65
2022-09-23T02:29:29.362Z,78.12
2022-09-23T02:32:21.599Z,77.44
2022-09-23T02:35:00.102Z,77.92
2022-09-23T02:37:48.204Z,78.35
2022-09-23T02:40:31.297Z,78.14
2022-09-23T02:43:15.079Z,77.97
2022-09-23T02:45:42.095Z,78.22
2022-09-23T02:48:41.258Z,78.71
2022-09-23T02:51:09.891Z,77.97
2022-09-23T02:53:37.366Z,77.46
2022-09-23T02:56:16.628Z,77.55
2022-09-23T02:58:44.024Z,76.87
2022-09-23T03:01:45.130Z,77.82
2022-09-23T03:05:00.346Z,77.12
2022-09-23T03:08:00.080Z,77.67
2022-09-23T03:10:40.083Z,77.84
2022-09-23T03:13:39.770Z,77.68
2022-09-23T03:16:20.645Z,78.35
2022-09-23T03:18:59.715Z,78.75
2022-09-23T03:21:39.312Z,78.71
2022-09-23T03:24:09.274Z,78.11
2022-09-23T03:26:39.916Z,78.40
2022-09-23T03:29:11.172Z,78.46
2022-09-23T03:31:40.081Z,78.75
2022-09-23T03:34:21.517Z,78.05
2022-09-23T03:37:10.827Z,78.79
2022-09-23T03:39:48.733Z,78.50
2022-09-23T03:42:26.100Z,78.56
2022-09-23T03:44:57.299Z,78.91
2022-09-23T03:47:26.999Z,79.03
2022-09-23T03:49:54.580Z,78.19
2022-09-23T03:52:24.830Z,78.47
2022-09-23T03:54:52.743Z,78.60
2022-09-23T03:57:23.817Z,78.34
2022-09-23T03:59:51.618Z,78.63
2022-09-23T04:02:20.127Z,77.85
2022-09-23T04:04:47.424Z,77.79
2022-09-23T04:07:14.682Z,77.30
2022-09-23T04:09:41.982Z,77.41
2022-09-23T04:12:14.997Z,77.72
2022-09-23T04:14:42.554Z,77.74
2022-09-23T04:17:09.855Z,77.75
2022-09-23T04:19:37.045Z,77.09
2022-09-23T04:22:04.781Z,77.77
2022-09-23T04:24:31.581Z,78.19
2022-09-23T04:26:58.450Z,77.76
2022-09-23T04:29:26.380Z,77.51
2022-09-23T04:31:54.223Z,77.59
2022-09-23T04:34:21.406Z,78.13
2022-09-23T04:36:49.067Z,77.70
2022-09-23T04:39:17.264Z,77.19
2022-09-23T04:41:45.094Z,78.03
2022-09-23T04:44:13.682Z,78.22
2022-09-23T04:46:47.430Z,78.30
2022-09-23T04:49:15.646Z,78.19
2022-09-23T04:51:43.448Z,77.78
2022-09-23T04:54:12.124Z,79.07
2022-09-23T04:56:39.688Z,78.85
2022-09-23T04:59:07.162Z,78.76
2022-09-23T05:01:36.303Z,79.20
2022-09-23T05:04:06.849Z,79.14
2022-09-23T05:06:34.904Z,78.88
2022-09-23T05:09:04.656Z,78.85
2022-09-23T05:11:31.893Z,78.93
2022-09-23T05:13:58.986Z,78.22
2022-09-23T05:16:27.150Z,78.48
2022-09-23T05:18:54.632Z,77.90
2022-09-23T05:21:24.433Z,77.98
2022-09-23T05:23:55.208Z,77.71
2022-09-23T05:26:25.271Z,77.23
2022-09-23T05:28:53.734Z,76.79
2022-09-23T05:31:23.985Z,76.75
2022-09-23T05:33:55.373Z,75.31
2022-09-23T05:36:23.302Z,73.80
2022-09-23T05:38:51.222Z,72.21
2022-09-23T05:41:22.937Z,70.91
2022-09-23T05:43:54.594Z,70.01
2022-09-23T05:46:24.863Z,68.03
2022-09-23T05:48:52.081Z,66.61
2022-09-23T05:51:21.739Z,66.35
2022-09-23T05:53:51.116Z,65.94
2022-09-23T05:56:21.667Z,66.40
2022-09-23T05:58:55.452Z,65.02
2022-09-23T06:01:25.623Z,64.30
2022-09-23T06:03:54.746Z,63.12
2022-09-23T06:06:28.872Z,61.51
2022-09-23T06:08:56.576Z,59.79
2022-09-23T06:11:23.369Z,59.39
2022-09-23T06:13:55.866Z,58.44
2022-09-23T06:16:22.816Z,59.33
2022-09-23T06:18:49.657Z,57.60
2022-09-23T06:21:18.190Z,56.76
2022-09-23T06:23:46.662Z,55.00
2022-09-23T06:26:16.097Z,55.49
2022-09-23T06:28:45.799Z,56.20
2022-09-23T06:31:17.029Z,56.69
2022-09-23T06:33:45.535Z,57.49
2022-09-23T06:36:24.311Z,57.83
2022-09-23T06:39:02.239Z,58.27
2022-09-23T06:41:29.649Z,59.04
2022-09-23T06:43:56.440Z,59.34
2022-09-23T06:46:23.249Z,59.28
2022-09-23T06:48:51.012Z,59.59
2022-09-23T06:51:21.670Z,58.79
2022-09-23T06:53:49.440Z,58.77
2022-09-23T06:56:19.665Z,58.10
2022-09-23T06:58:47.055Z,57.89
2022-09-23T07:01:16.755Z,57.13
2022-09-23T07:03:45.142Z,56.04
2022-09-23T07:06:12.117Z,55.98
2022-09-23T07:08:43.051Z,56.25
2022-09-23T07:11:13.123Z,55.81
2022-09-23T07:13:41.894Z,54.33
2022-09-23T07:16:09.980Z,52.81
2022-09-23T07:18:37.540Z,51.98
2022-09-23T07:21:15.056Z,50.74
2022-09-23T07:23:44.065Z,49.19
2022-09-23T07:26:11.285Z,47.45
2022-09-23T07:28:39.370Z,46.92
2022-09-23T07:31:13.978Z,45.96
2022-09-23T07:33:44.119Z,44.46
2022-09-23T07:36:18.289Z,43.26
2022-09-23T07:38:46.508Z,42.27
2022-09-23T07:41:18.032Z,40.56
2022-09-23T07:43:46.525Z,38.68
2022-09-23T07:46:17.881Z,37.17
2022-09-23T07:48:45.924Z,36.53
2022-09-23T07:51:20.181Z,35.53
2022-09-23T07:53:49.304Z,34.48
2022-09-23T07:56:19.032Z,33.12
2022-09-23T07:58:59.959Z,32.10
2022-09-23T08:01:29.479Z,31.37
2022-09-23T08:03:58.955Z,31.13
2022-09-23T08:06:26.270Z,31.06
2022-09-23T08:08:53.723Z,31.01
2022-09-23T08:11:20.715Z,31.13
2022-09-23T08:13:47.737Z,31.28
2022-09-23T08:16:14.550Z,30.73
2022-09-23T08:18:45.188Z,29.33
2022-09-23T08:21:12.716Z,27.49
2022-09-23T08:23:39.556Z,26.63
2022-09-23T08:26:13.702Z,26.33
2022-09-23T08:28:45.225Z,26.58
2022-09-23T08:31:15.357Z,25.77
2022-09-23T08:33:42.227Z,25.04
2022-09-23T08:36:09.111Z,24.01
2022-09-23T08:38:35.956Z,22.95
2022-09-23T08:41:28.913Z,22.18
2022-09-23T08:44:02.837Z,20.83
2022-09-23T08:46:40.298Z,18.98
2022-09-23T08:49:09.431Z,18.44
2022-09-23T08:51:46.308Z,17.38
2022-09-23T08:54:16.960Z,17.55
2022-09-23T08:56:48.497Z,17.10
2022-09-23T08:59:22.856Z,16.75
2022-09-23T09:01:59.078Z,17.21
2022-09-23T09:04:51.072Z,16.01
2022-09-23T09:07:36.623Z,14.80
2022-09-23T09:10:16.576Z,14.40
2022-09-23T09:13:01.559Z,14.56
2022-09-23T09:15:29.071Z,13.85
2022-09-23T09:18:07.548Z,13.54
2022-09-23T09:21:09.883Z,14.26
2022-09-23T09:23:58.228Z,13.71
2022-09-23T09:26:33.078Z,12.75
2022-09-23T09:29:35.458Z,12.84
2022-09-23T09:32:33.651Z,12.42
2022-09-23T09:35:20.912Z,12.70
2022-09-23T09:37:48.313Z,12.28
2022-09-23T09:40:17.149Z,11.84
2022-09-23T09:42:49.425Z,11.62
2022-09-23T09:45:57.489Z,12.01
2022-09-23T09:48:59.717Z,12.37
2022-09-23T09:51:29.294Z,11.75
2022-09-23T09:54:23.208Z,11.45
2022-09-23T09:56:51.727Z,12.09
2022-09-23T09:59:27.401Z,13.10
2022-09-23T10:02:29.202Z,15.39
2022-09-23T10:05:03.725Z,14.42
2022-09-23T10:07:33.715Z,12.94
2022-09-23T10:10:33.700Z,12.28
2022-09-23T10:13:16.027Z,13.09
2022-09-23T10:15:45.454Z,13.32
2022-09-23T10:18:37.298Z,13.89
2022-09-23T10:21:14.340Z,14.10
2022-09-23T10:23:45.437Z,15.16
2022-09-23T10:26:17.237Z,16.93
2022-09-23T10:28:52.671Z,17.04
2022-09-23T10:31:27.982Z,19.54
2022-09-23T10:33:57.590Z,20.90
2022-09-23T10:36:24.862Z,22.94
2022-09-23T10:39:17.411Z,26.38
2022-09-23T10:42:21.504Z,29.83
2022-09-23T10:45:39.725Z,32.02
2022-09-23T10:48:27.154Z,34.72
2022-09-23T10:50:55.917Z,36.56
2022-09-23T10:53:28.679Z,37.03
2022-09-23T10:56:14.063Z,38.48
2022-09-23T10:59:27.068Z,39.00
2022-09-23T11:02:17.855Z,39.96
2022-09-23T11:05:18.605Z,40.29
2022-09-23T11:08:28.758Z,41.30
2022-09-23T11:11:18.874Z,42.59
2022-09-23T11:14:17.116Z,42.69
2022-09-23T11:17:05.675Z,42.92
2022-09-23T11:20:18.088Z,42.85
2022-09-23T11:23:23.874Z,44.60
2022-09-23T11:26:12.300Z,44.95
2022-09-23T11:29:19.303Z,44.99
2022-09-23T11:32:28.226Z,45.21
2022-09-23T11:35:27.301Z,45.74
2022-09-23T11:38:18.677Z,45.94
2022-09-23T11:40:51.870Z,45.77
2022-09-23T11:43:23.861Z,46.19
2022-09-23T11:46:10.187Z,45.72
2022-09-23T11:48:42.090Z,45.49
2022-09-23T11:51:13.005Z,45.13
2022-09-23T11:53:47.532Z,45.94
2022-09-23T11:56:41.429Z,45.76
2022-09-23T11:59:40.637Z,45.19
2022-09-23T12:02:34.741Z,44.83
2022-09-23T12:05:22.023Z,45.00
2022-09-23T12:08:09.749Z,45.19
2022-09-23T12:10:53.715Z,44.49
2022-09-23T12:13:50.863Z,45.35
2022-09-23T12:17:04.299Z,45.05
2022-09-23T12:20:04.996Z,44.64
2022-09-23T12:22:58.992Z,44.54
2022-09-23T12:25:52.117Z,44.14
2022-09-23T12:28:45.247Z,44.93
2022-09-23T12:31:16.549Z,44.97
2022-09-23T12:33:53.565Z,44.79
2022-09-23T12:36:34.717Z,44.17
2022-09-23T12:39:07.084Z,44.49
2022-09-23T12:41:50.614Z,43.83
2022-09-23T12:44:40.407Z,43.89
2022-09-23T12:47:21.283Z,44.13
2022-09-23T12:49:50.752Z,44.04
2022-09-23T12:52:17.560Z,43.48
2022-09-23T12:54:49.600Z,43.81
2022-09-23T12:57:34.769Z,43.89
2022-09-23T13:00:12.144Z,44.06
2022-09-23T13:03:12.534Z,44.28
2022-09-23T13:06:16.662Z,44.36
2022-09-23T13:08:45.532Z,44.58
2022-09-23T13:11:26.568Z,44.84
2022-09-23T13:13:57.583Z,45.21
2022-09-23T13:16:41.862Z,45.21
2022-09-23T13:19:27.180Z,45.55
2022-09-23T13:21:54.016Z,45.82
2022-09-23T13:24:23.782Z,46.01
2022-09-23T13:26:54.859Z,46.17
2022-09-23T13:29:39.081Z,46.52
2022-09-23T13:32:14.989Z,46.79
2022-09-23T13:34:46.555Z,47.18
2022-09-23T13:37:25.166Z,47.47
2022-09-23T13:39:52.038Z,47.07
2022-09-23T13:42:28.897Z,47.21
2022-09-23T13:44:59.011Z,47.17
2022-09-23T13:47:29.625Z,46.44
2022-09-23T13:49:56.946Z,46.26
2022-09-23T13:52:31.880Z,45.69
2022-09-23T13:54:58.984Z,45.33
2022-09-23T13:57:35.296Z,46.17
2022-09-23T14:00:18.536Z,47.20
2022-09-23T14:02:46.904Z,46.15
2022-09-23T14:05:27.163Z,45.80
2022-09-23T14:07:56.238Z,46.57
2022-09-23T14:10:24.981Z,46.86
2022-09-23T14:12:54.052Z,46.73
2022-09-23T14:15:21.625Z,46.40
2022-09-23T14:17:53.345Z,46.21
2022-09-23T14:20:23.180Z,47.08
2022-09-23T14:23:06.489Z,47.18
2022-09-23T14:25:34.330Z,46.78
2022-09-23T14:28:01.562Z,47.91
2022-09-23T14:30:28.787Z,46.91
2022-09-23T14:32:55.827Z,46.85
2022-09-23T14:35:40.126Z,47.05
2022-09-23T14:38:25.283Z,47.27
2022-09-23T14:41:17.198Z,47.92
2022-09-23T14:43:57.096Z,47.60
2022-09-23T14:46:30.131Z,47.55
2022-09-23T14:49:11.315Z,47.24
2022-09-23T14:51:46.621Z,46.96
2022-09-23T14:54:47.390Z,48.79
2022-09-23T14:57:23.270Z,48.39
2022-09-23T14:59:59.960Z,48.24
2022-09-23T15:02:36.556Z,47.72
2022-09-23T15:05:20.573Z,48.16
2022-09-23T15:07:50.955Z,48.24
2022-09-23T15:10:28.694Z,48.49
2022-09-23T15:13:25.286Z,48.23
2022-09-23T15:15:53.619Z,47.27
2022-09-23T15:18:32.823Z,46.18
2022-09-23T15:21:13.078Z,46.02
2022-09-23T15:23:57.254Z,46.52
2022-09-23T15:26:49.404Z,47.01
2022-09-23T15:29:16.550Z,47.22
2022-09-23T15:31:43.522Z,47.77
2022-09-23T15:34:11.066Z,47.32
2022-09-23T15:36:38.600Z,46.94
2022-09-23T15:39:08.573Z,46.49
2022-09-23T15:41:35.446Z,46.41
2022-09-23T15:44:29.822Z,47.17
2022-09-23T15:46:59.943Z,47.31
2022-09-23T15:49:36.157Z,47.80
2022-09-23T15:52:05.198Z,47.93
2022-09-23T15:54:33.687Z,48.04
2022-09-23T15:57:01.126Z,48.57
2022-09-23T15:59:30.865Z,48.73
2022-09-23T16:02:02.014Z,49.18
2022-09-23T16:04:31.236Z,49.81
2022-09-23T16:06:58.988Z,49.90
2022-09-23T16:09:28.211Z,49.35
2022-09-23T16:11:55.159Z,49.48
2022-09-23T16:14:21.992Z,50.21
2022-09-23T16:16:48.867Z,50.47
2022-09-23T16:19:17.616Z,50.62
2022-09-23T16:21:44.704Z,51.18
2022-09-23T16:24:17.785Z,51.35
2022-09-23T16:26:46.730Z,51.24
2022-09-23T16:29:14.624Z,51.46
2022-09-23T16:31:41.462Z,51.50
2022-09-23T16:34:08.548Z,51.51
2022-09-23T16:36:41.043Z,51.72
2022-09-23T16:39:12.105Z,52.11
2022-09-23T16:41:39.610Z,53.15
2022-09-23T16:44:10.485Z,53.81
2022-09-23T16:46:37.326Z,53.76
2022-09-23T16:49:04.519Z,53.43
2022-09-23T16:51:38.265Z,54.11
2022-09-23T16:54:11.710Z,54.96
2022-09-23T16:56:44.890Z,54.94
2022-09-23T16:59:14.315Z,55.65
2022-09-23T17:02:00.645Z,56.37
2022-09-23T17:04:30.054Z,56.08
2022-09-23T17:06:57.082Z,55.89
2022-09-23T17:09:27.878Z,56.67
2022-09-23T17:12:19.565Z,56.97
2022-09-23T17:14:46.400Z,56.03
2022-09-23T17:17:13.184Z,55.64
2022-09-23T17:19:41.314Z,54.68
2022-09-23T17:22:08.161Z,54.54
2022-09-23T17:24:34.971Z,54.53
2022-09-23T17:27:01.796Z,55.22
2022-09-23T17:29:29.067Z,55.58
2022-09-23T17:31:56.047Z,55.72
2022-09-23T17:34:24.023Z,56.06
2022-09-23T17:36:50.840Z,55.41
2022-09-23T17:39:17.757Z,56.18
2022-09-23T17:41:45.425Z,56.19
2022-09-23T17:44:12.573Z,56.51
2022-09-23T17:46:39.409Z,56.39
2022-09-23T17:49:07.877Z,56.91
2022-09-23T17:51:34.888Z,57.28
2022-09-23T17:54:01.716Z,57.77
2022-09-23T17:56:29.916Z,58.25
2022-09-23T17:59:04.129Z,58.68
2022-09-23T18:01:31.050Z,58.71
2022-09-23T18:04:00.657Z,58.83
2022-09-23T18:06:33.118Z,58.69
2022-09-23T18:09:03.595Z,58.74
2022-09-23T18:11:35.489Z,59.78
2022-09-23T18:14:11.460Z,60.44
2022-09-23T18:16:41.534Z,59.99
2022-09-23T18:19:13.226Z,60.24
2022-09-23T18:21:44.670Z,60.78
2022-09-23T18:26:59.880Z,61.38
2022-09-23T18:29:27.007Z,60.99
2022-09-23T18:31:54.053Z,61.38
2022-09-23T18:34:22.553Z,60.76
2022-09-23T18:36:49.472Z,60.59
2022-09-23T18:39:16.883Z,61.06
2022-09-23T18:41:43.715Z,61.53
2022-09-23T18:44:10.657Z,61.75
2022-09-23T18:46:37.593Z,62.16
2022-09-23T18:49:23.162Z,62.36
2022-09-23T18:51:52.404Z,62.31
2022-09-23T18:54:19.860Z,62.66
2022-09-23T18:56:46.981Z,62.40
2022-09-23T18:59:19.518Z,62.76
2022-09-23T19:01:49.646Z,62.79
2022-09-23T19:04:19.620Z,62.86
2022-09-23T19:06:46.945Z,63.10
2022-09-23T19:09:15.705Z,62.94
2022-09-23T19:11:42.895Z,63.70
2022-09-23T19:14:11.753Z,63.60
2022-09-23T19:16:40.187Z,64.49
2022-09-23T19:19:08.105Z,64.86
2022-09-23T19:21:35.176Z,64.56
2022-09-23T19:24:06.072Z,64.61
2022-09-23T19:26:39.758Z,65.01
2022-09-23T19:29:11.407Z,64.70
2022-09-23T19:31:40.153Z,65.20
2022-09-23T19:34:13.310Z,65.71
2022-09-23T19:36:43.341Z,65.96
2022-09-23T19:39:25.121Z,65.97
2022-09-23T19:41:55.708Z,66.23
2022-09-23T19:44:24.219Z,66.13
2022-09-23T19:46:55.897Z,66.21
2022-09-23T19:49:24.353Z,66.21
2022-09-23T19:51:51.343Z,66.57
2022-09-23T19:54:20.418Z,66.85
2022-09-23T19:56:48.714Z,67.75
2022-09-23T19:59:18.724Z,67.41
2022-09-23T20:01:47.941Z,68.08
2022-09-23T20:04:16.085Z,68.36
2022-09-23T20:06:43.464Z,67.59
2022-09-23T20:09:10.419Z,67.56
2022-09-23T20:11:37.301Z,67.87
2022-09-23T20:14:06.013Z,68.33
2022-09-23T20:16:36.870Z,68.42
2022-09-23T20:19:04.903Z,68.51
2022-09-23T20:21:33.411Z,68.75
2022-09-23T20:24:01.029Z,68.29
2022-09-23T20:26:46.614Z,67.86
2022-09-23T20:29:14.081Z,67.14
2022-09-23T20:31:41.319Z,68.05
2022-09-23T20:34:10.704Z,68.00
2022-09-23T20:36:39.473Z,68.55
2022-09-23T20:39:06.832Z,68.28
2022-09-23T20:41:37.860Z,68.63
2022-09-23T20:44:09.052Z,68.99
2022-09-23T20:46:36.076Z,69.14
2022-09-23T20:49:04.157Z,69.66
2022-09-23T20:51:33.159Z,69.45
2022-09-23T20:54:00.457Z,69.50
2022-09-23T20:56:29.200Z,69.69
2022-09-23T20:59:05.557Z,69.64
2022-09-23T21:01:35.186Z,69.70
2022-09-23T21:04:04.730Z,70.26
2022-09-23T21:06:31.671Z,70.47
2022-09-23T21:08:59.208Z,69.94
2022-09-23T21:11:26.321Z,69.66
2022-09-23T21:13:54.608Z,70.54
2022-09-23T21:16:22.840Z,70.71
2022-09-23T21:18:51.358Z,70.39
2022-09-23T21:21:19.663Z,71.07
2022-09-23T21:23:47.535Z,71.79
2022-09-23T21:26:19.726Z,71.42
2022-09-23T21:28:49.690Z,71.59
2022-09-23T21:31:25.153Z,72.18
2022-09-23T21:34:04.308Z,72.19
2022-09-23T21:36:37.102Z,72.76
2022-09-23T21:39:06.632Z,72.30
2022-09-23T21:41:34.395Z,72.62
2022-09-23T21:44:04.696Z,72.13
2022-09-23T21:46:35.276Z,72.90
2022-09-23T21:49:03.577Z,72.67
2022-09-23T21:51:40.346Z,72.92
2022-09-23T21:54:15.797Z,73.13
2022-09-23T21:56:44.089Z,73.44
2022-09-23T21:59:11.283Z,74.03
2022-09-23T22:01:43.531Z,73.63
2022-09-23T22:04:17.282Z,73.32
2022-09-23T22:06:45.617Z,73.63
2022-09-23T22:09:19.926Z,73.93
2022-09-23T22:12:05.218Z,74.08
2022-09-23T22:14:32.247Z,74.44
2022-09-23T22:17:02.237Z,74.13
2022-09-23T22:19:33.073Z,74.26
2022-09-23T22:22:00.122Z,74.20
2022-09-23T22:24:27.265Z,74.15
2022-09-23T22:26:54.152Z,73.82
2022-09-23T22:29:39.692Z,73.72
2022-09-23T22:32:30.205Z,73.14
2022-09-23T22:34:57.707Z,72.60
2022-09-23T22:37:28.403Z,73.05
2022-09-23T22:39:55.347Z,72.95
2022-09-23T22:42:22.863Z,73.25
2022-09-23T22:44:50.629Z,73.54
2022-09-23T22:47:18.617Z,73.54
2022-09-23T22:49:47.010Z,73.89
2022-09-23T22:52:15.932Z,73.72
2022-09-23T22:54:43.044Z,74.05
2022-09-23T22:57:09.893Z,73.84
2022-09-23T22:59:39.836Z,74.12
2022-09-23T23:02:07.990Z,73.58
2022-09-23T23:04:37.104Z,73.85
2022-09-23T23:07:06.006Z,73.95
2022-09-23T23:09:33.144Z,74.00
2022-09-23T23:12:00.118Z,73.41
2022-09-23T23:14:27.827Z,73.30
2022-09-23T23:16:55.048Z,73.70
2022-09-23T23:19:21.941Z,72.97
2022-09-23T23:21:50.412Z,73.77
2022-09-23T23:24:21.445Z,73.96
2022-09-23T23:26:49.095Z,74.45
2022-09-23T23:29:18.601Z,74.60
2022-09-23T23:31:46.279Z,74.82
2022-09-23T23:34:21.164Z,75.29
2022-09-23T23:36:54.763Z,75.45
2022-09-23T23:39:23.998Z,74.55
2022-09-23T23:41:55.663Z,74.31
2022-09-23T23:44:24.625Z,74.28
2022-09-23T23:46:52.421Z,74.98
2022-09-23T23:49:19.746Z,75.08
2022-09-23T23:51:47.737Z,75.12
2022-09-23T23:54:15.230Z,74.96
2022-09-23T23:56:42.444Z,75.85
2022-09-23T23:59:09.382Z,75.54
